Vlad Korotkov

Главный скаут - Fakel
3 Дек 2028
Воскресенье
Продолжить

Характер

Адаптивность (1) Амбиции (14) Скандальность (10) Верность (6) Стрессоустойчивость (2) Профессионализм (4) Благородство (3) Темперамент (13)

Профиль

Стиль управления Демократичный
Лицензия Континентальная C
Решительность 6
Управление людьми 4
Мотивация 8
Дисциплина 7
Удовлетворённость
100%
Усталость
0%
Должность Главный скаут
Зарплата 24.2K в нед.
Контракт 14.03.2030

Производительность

Поведение Хорошее
Эффективность тренировок
34%
Развитие игроков
15%
Профилактика травм
35%
Тактическая реализация
15%

Недавние события

Участвовал в селекционном совещании 14 дн. назад
Участвовал в селекционном совещании 21 дн. назад
Участвовал в селекционном совещании 28 дн. назад
Участвовал в селекционном совещании 35 дн. назад
Участвовал в селекционном совещании 42 дн. назад
Участвовал в селекционном совещании 49 дн. назад
День рождения 49 дн. назад
Участвовал в селекционном совещании 56 дн. назад

Текущее наблюдение

91
Игрок Клуб Статус Способность Уверенность Наблюдений Последнее наблюдение Последний голос
Sergey Terekhov Dinamo Bryansk Упущен 104 / 108 72% 1 21.08.2028 За
Edgardo Fariña Nizhniy Novgorod Активный 122 / 106 40% 3 12.06.2028 -
Alexandr Korotkov Rotor Активный 100 / 109 40% 3 12.06.2028 -
Roberto Pierno Campobasso Активный 115 / 106 40% 1 12.06.2028 -
Ilja Agapov Ufa Активный 121 / 117 40% 2 10.06.2028 -
Matthew Baker Newport County Активный 105 / 97 40% 1 10.06.2028 -
Max Sanders Crewe Alexandra Активный 107 / 125 40% 1 09.06.2028 -
Géza Dávid Turi Grimsby Town Активный 111 / 94 40% 1 09.06.2028 -
Denver Hume Fleetwood Town Активный 116 / 92 40% 6 08.06.2028 -
Nohan Kenneh Tranmere Rovers Активный 93 / 94 40% 1 08.06.2028 -
Alexandr Kovalenko Sochi Отклонён 111 / 123 40% 3 07.06.2028 Против
Luca Hoole Shrewsbury Town Активный 112 / 109 40% 3 02.06.2028 -
Kirill Bozhenov Sokol Активный 102 / 106 40% 2 02.06.2028 -
Matt Smith Newport County Активный 113 / 116 40% 3 02.06.2028 -
Konstantin Kovalev Volga Активный 109 / 96 40% 1 01.06.2028 -
Riley Owen Stevenage Активный 118 / 125 40% 1 31.05.2028 -
Rhys Walters Port Vale Активный 105 / 101 40% 2 30.05.2028 -
Pavel Maslov Chaika Активный 113 / 104 40% 3 30.05.2028 -
Joe Snowdon Swindon Town Активный 97 / 117 40% 1 28.05.2028 -
Federico Giraudo Casarano Активный 117 / 110 40% 1 28.05.2028 -
Oliver Urso Lecco Активный 103 / 95 40% 2 27.05.2028 -
Kees de Boer Salernitana Активный 113 / 129 40% 1 27.05.2028 -
Kamil Conteh Bristol Rovers Активный 105 / 122 40% 1 27.05.2028 -
Mattia Maffei Trento Активный 95 / 113 40% 1 26.05.2028 -
Garrik Levin Chelyabinsk Активный 110 / 95 40% 2 25.05.2028 -
Elliot Bonds Fleetwood Town Активный 103 / 119 40% 2 25.05.2028 -
Denzel Hall Rotherham United Активный 107 / 98 40% 1 25.05.2028 -
Bojan Roganović Torpedo Moscow Активный 117 / 110 40% 3 22.05.2028 -
Ignacio Saavedra Sochi Активный 120 / 125 40% 2 21.05.2028 -
Finley Burns Wigan Athletic Активный 110 / 97 40% 2 18.05.2028 -
Reece Oxford Shrewsbury Town Активный 119 / 102 40% 1 17.05.2028 -
Eyob Zambataro Novara Активный 116 / 95 40% 1 13.05.2028 -
Jack Shepherd Swindon Town Активный 125 / 122 40% 1 10.05.2028 -
Iker Pozo Rodina Активный 123 / 117 40% 1 08.05.2028 -
Ettore Quirini Salernitana Активный 116 / 131 40% 1 08.05.2028 -
Ryan Stirk Chesterfield Активный 113 / 125 40% 2 04.05.2028 -
Timofey Kalistratov KAMAZ Активный 105 / 99 40% 1 04.05.2028 -
Kelechi Nwakali Barnsley Активный 123 / 115 40% 2 03.05.2028 -
Dan Happe Salford City Активный 115 / 98 40% 1 03.05.2028 -
Arthur Read Colchester United Активный 103 / 95 40% 1 01.05.2028 -
Alexandr Ivankov Torpedo Moscow Активный 119 / 107 40% 1 01.05.2028 -
Ashley Charles Bromley Активный 90 / 97 40% 1 29.04.2028 -
Zane Albarus Shrewsbury Town Активный 98 / 99 40% 1 29.04.2028 -
Rich Sackey Medeama Активный 101 / 106 40% 1 28.04.2028 -
Maxim Shnaptsev Baltika Активный 105 / 100 40% 1 20.04.2028 -
Temirkan Sundukov Dinamo Makhachkala Активный 110 / 113 40% 1 20.04.2028 -
Jack Perkins Bromley Активный 94 / 91 40% 1 13.04.2028 -
Artem Bykov Sokol Активный 102 / 104 40% 1 12.04.2028 -
Claud Adjapong Potenza Активный 105 / 95 40% 1 12.04.2028 -
Savely Nikiforov Zenit Активный 86 / 79 40% 1 12.04.2028 -
Nicolas Previtali Giana Erminio Активный 105 / 127 40% 1 09.04.2028 -
Bojan Dimoski Akron Активный 115 / 98 40% 1 04.04.2028 -
Yegor Noskov SKA Khabarovsk Активный 94 / 109 40% 1 04.04.2028 -
Artem Kotik Neftekhimik Активный 96 / 96 30% 1 / 1m 05.01.2028 -
Vladlen Ostrovsky Irkutsk Активный 82 / 87 30% 1 / 1m 06.10.2027 -
Yury Nesterenko Kuban Упущен 97 / 97 69% 1 23.08.2027 -
Maxim Belov Dinamo Brest Активный 103 / 95 40% 1 12.06.2027 -
Stanislav Kleschuk Gomel Активный 99 / 99 40% 1 11.06.2027 -
Alexey Kharitonovich Slutsk Активный 87 / 78 40% 1 11.06.2027 -
Bogdan Ovsyannikov Orenburg Активный 113 / 114 40% 6 08.06.2027 -
Sergey Ignatovich Torpedo-BelAZ Активный 97 / 95 40% 1 06.06.2027 -
Artur Anisimov KAMAZ Активный 94 / 96 40% 3 05.06.2027 -
Vladimir Pavlov Saturn Активный 75 / 76 40% 3 05.06.2027 -
Nikita Medvedev Nizhniy Novgorod Активный 113 / 104 40% 3 01.06.2027 -
Islam Imamov SKA Khabarovsk Активный 93 / 97 40% 3 31.05.2027 -
Nikita Pavlov Chaika Активный 77 / 88 40% 2 31.05.2027 -
Maxim Shichanin Zenit Активный 86 / 93 40% 1 30.05.2027 -
Andrey Golubev Neftekhimik Активный 103 / 101 40% 4 29.05.2027 -
Nikolay Rybikov Dinamo St Petersburg Активный 89 / 83 40% 1 29.05.2027 -
David Sangaré Ryazan Активный 97 / 97 40% 2 25.05.2027 -
Vladislav Kucheiko Sevastopol Активный 73 / 75 40% 1 25.05.2027 -
Maxim Vafiev Torpedo Vladimir Активный 75 / 87 40% 6 24.05.2027 -
Roman Anikeev Dinamo Vologda Активный 75 / 80 40% 1 24.05.2027 -
Cristian Rivero Real Sociedad Активный 121 / 111 40% 2 22.05.2027 -
Kaur Kivila Flora Активный 96 / 88 40% 1 20.05.2027 -
Ilja Tuseev Chelyabinsk Активный 91 / 99 40% 1 19.05.2027 -
Georgy Tuaev Rubin Yalta Активный 79 / 79 40% 1 16.05.2027 -
Vladimir Tsapurin SKA Khabarovsk Активный 75 / 86 40% 2 14.05.2027 -
Ivan Lomaev Ufa Активный 115 / 117 40% 4 10.05.2027 -
Denis Vambolt Shinnik Активный 93 / 97 40% 3 10.05.2027 -
Vladislav Zernaev Salyut Активный 85 / 81 40% 2 05.05.2027 -
Sergey Volkov Rodina Активный 101 / 116 40% 1 04.05.2027 -
Petr Kosarevskiy Sibir Активный 105 / 98 40% 2 23.04.2027 -
Nuno Rafael Nart Активный 66 / 74 40% 1 23.04.2027 -
Timur Kraikov Sokol Активный 100 / 93 40% 1 22.04.2027 -
Dmitry Rebrov Volna Активный 72 / 82 40% 1 21.04.2027 -
Roman Raifegerste Khimik Активный 75 / 91 40% 1 21.04.2027 -
Rostislav Soldatenko Torpedo Moscow Активный 104 / 102 40% 2 16.04.2027 -
Timur Akmurzin Dinamo Bryansk Активный 85 / 91 40% 1 10.04.2027 -
Tomás Galván River Plate Активный 112 / 127 40% 1 04.08.2026 -
Gastón Lodico Racing Club Активный 135 / 126 40% 1 01.08.2026 -